Voorthuizen, Netherlands
Current Conditions -  °F | °C
As of 1:25 AM on Saturday 25 Oct 2014 (Local Time) from EHDL Reporting Station
Light Rain Light Rain  
Wind Chill: 52°   Ceiling: 600
Heat Index: 52°   Visibility: 5mi
Dew Point: 52°   Wind: 12mph
Humidity: 100%   Direction: 190°S
Pressure: 30"   Gusts: NA
Location:  52.19°N, 5.61°E
Report Text: EHDL 242325Z AUTO 19010KT 8000 -RA SCT005 BKN006 OVC008 11/11 Q1016 YLO
Loading
Personal Weather Stations






























Interactive Weather Map
Tropical Storm Tracking
New forecast layout! Learn more

10-Day Weather Forecast

Advertisements
Track Severe Weather on mobile